PWSweather.com
Personal Weather Stations
Station Observations
KILMORRI1
Goose Lake, Morris, IL 60450

Goose LakeMorris, IL 60450

Lat: 41.34, Lon: -88.3

Elevation: 523

Station Type:

www.gooselakeweather.com

High Low Average
Temperature -8.4°F-22.4°C -22.4°F-30.2°C -15.0°F-26.1°C
Dew Point -17.0°F-27.2°C -30.4°F-34.7°C -23.6°F-30.9°C
Winds 15.0 mph 24.1 kmh Calm Calm 6.0 mph WSW9.7 kmh WSW
Wind Gusts 24.2 mph38.9 kmh -- 9.0 mph14.5 kmh
Humidity 71% 55% 64%
Pressure 30.50 in1032.8 mb 30.13 in1020.3 mb -
Precipitation 0.00 in0.0 mm - -
Hour Temp Dew Point Humidity Winds Wind Gusts Pressure Precip Precip Rate Daily Precip Total
12:00 AM -8.4°F-22.4°C -17.0°F-27.2°C 65% 10.4 mph W16.7 kmh W 18.4 mph29.6 kmh 30.13 in1020.3 mb - 0.00 in0.0 mm 0.00 in0.0 mm
12:10 AM -8.9°F-22.7°C -17.5°F-27.5°C 65% 10.4 mph W16.7 kmh W 17.3 mph27.8 kmh 30.13 in1020.3 mb - 0.00 in0.0 mm 0.00 in0.0 mm
12:20 AM -9.3°F-22.9°C -18.2°F-27.9°C 64% 12.7 mph NW20.4 kmh NW 17.3 mph27.8 kmh 30.14 in1020.7 mb - 0.00 in0.0 mm 0.00 in0.0 mm
12:30 AM -9.6°F-23.1°C -18.5°F-28.1°C 64% 6.9 mph WNW11.1 kmh WNW 9.2 mph14.8 kmh 30.14 in1020.7 mb - 0.00 in0.0 mm 0.00 in0.0 mm
12:40 AM -10.1°F-23.4°C -18.6°F-28.1°C 65% 9.2 mph W14.8 kmh W 11.5 mph18.5 kmh 30.14 in1020.7 mb - 0.00 in0.0 mm 0.00 in0.0 mm
12:50 AM -10.6°F-23.7°C -20.0°F-28.9°C 62% 15.0 mph W24.1 kmh W 21.9 mph35.2 kmh 30.15 in1021.0 mb - 0.00 in0.0 mm 0.00 in0.0 mm
01:00 AM -11.1°F-23.9°C -21.5°F-29.7°C 59% 9.2 mph W14.8 kmh W 12.7 mph20.4 kmh 30.15 in1021.0 mb - 0.00 in0.0 mm 0.00 in0.0 mm
01:10 AM -11.7°F-24.3°C -22.7°F-30.4°C 57% 10.4 mph W16.7 kmh W 18.4 mph29.6 kmh 30.15 in1021.0 mb - 0.00 in0.0 mm 0.00 in0.0 mm
01:20 AM -12.1°F-24.5°C -23.7°F-30.9°C 55% 11.5 mph W18.5 kmh W 20.7 mph33.3 kmh 30.16 in1021.3 mb - 0.00 in0.0 mm 0.00 in0.0 mm
01:30 AM -12.6°F-24.8°C -22.9°F-30.5°C 59% 10.4 mph W16.7 kmh W 13.8 mph22.2 kmh 30.16 in1021.3 mb - 0.00 in0.0 mm 0.00 in0.0 mm
01:40 AM -13.1°F-25.1°C -22.7°F-30.4°C 61% 11.5 mph W18.5 kmh W 12.7 mph20.4 kmh 30.17 in1021.7 mb - 0.00 in0.0 mm 0.00 in0.0 mm
01:50 AM -13.8°F-25.4°C -23.8°F-31.0°C 60% 15.0 mph W24.1 kmh W 16.1 mph25.9 kmh 30.18 in1022.0 mb - 0.00 in0.0 mm 0.00 in0.0 mm
02:00 AM -14.6°F-25.9°C -25.8°F-32.1°C 56% 12.7 mph W20.4 kmh W 21.9 mph35.2 kmh 30.18 in1022.0 mb - 0.00 in0.0 mm 0.00 in0.0 mm
02:10 AM -15.0°F-26.1°C -25.8°F-32.1°C 57% 11.5 mph W18.5 kmh W 23.0 mph37.0 kmh 30.19 in1022.4 mb - 0.00 in0.0 mm 0.00 in0.0 mm
02:20 AM -15.3°F-26.3°C -26.1°F-32.3°C 57% 12.7 mph W20.4 kmh W 12.7 mph20.4 kmh 30.19 in1022.4 mb - 0.00 in0.0 mm 0.00 in0.0 mm
02:30 AM -15.6°F-26.4°C -26.4°F-32.4°C 57% Calm Calm -- 30.19 in1022.4 mb - 0.00 in0.0 mm 0.00 in0.0 mm
02:40 AM -15.8°F-26.6°C -26.6°F-32.6°C 57% Calm Calm -- 30.19 in1022.4 mb - 0.00 in0.0 mm 0.00 in0.0 mm
02:50 AM -16.1°F-26.7°C -26.5°F-32.5°C 58% 11.5 mph W18.5 kmh W 24.2 mph38.9 kmh 30.20 in1022.7 mb - 0.00 in0.0 mm 0.00 in0.0 mm
03:00 AM -16.3°F-26.8°C -26.4°F-32.4°C 59% 9.2 mph W14.8 kmh W 15.0 mph24.1 kmh 30.20 in1022.7 mb - 0.00 in0.0 mm 0.00 in0.0 mm
03:10 AM -16.5°F-26.9°C -26.3°F-32.4°C 60% 8.1 mph W13.0 kmh W 19.6 mph31.5 kmh 30.21 in1023.0 mb - 0.00 in0.0 mm 0.00 in0.0 mm
03:20 AM -16.7°F-27.1°C -25.8°F-32.1°C 62% 9.2 mph W14.8 kmh W 13.8 mph22.2 kmh 30.21 in1023.0 mb - 0.00 in0.0 mm 0.00 in0.0 mm
03:30 AM -16.8°F-27.1°C -25.7°F-32.1°C 63% 9.2 mph W14.8 kmh W 12.7 mph20.4 kmh 30.21 in1023.0 mb - 0.00 in0.0 mm 0.00 in0.0 mm
03:40 AM -17.1°F-27.3°C -26.2°F-32.3°C 62% 8.1 mph W13.0 kmh W 11.5 mph18.5 kmh 30.22 in1023.4 mb - 0.00 in0.0 mm 0.00 in0.0 mm
03:50 AM -17.3°F-27.4°C -26.4°F-32.4°C 62% 4.6 mph WNW7.4 kmh WNW 11.5 mph18.5 kmh 30.23 in1023.7 mb - 0.00 in0.0 mm 0.00 in0.0 mm
04:00 AM -17.5°F-27.5°C -27.2°F-32.9°C 60% 10.4 mph W16.7 kmh W 13.8 mph22.2 kmh 30.23 in1023.7 mb - 0.00 in0.0 mm 0.00 in0.0 mm
04:10 AM -17.8°F-27.7°C -27.5°F-33.1°C 60% 10.4 mph W16.7 kmh W 15.0 mph24.1 kmh 30.23 in1023.7 mb - 0.00 in0.0 mm 0.00 in0.0 mm
04:20 AM -18.1°F-27.8°C -27.5°F-33.1°C 61% 9.2 mph WSW14.8 kmh WSW 17.3 mph27.8 kmh 30.24 in1024.0 mb - 0.00 in0.0 mm 0.00 in0.0 mm
04:30 AM -18.4°F-28.0°C -27.8°F-33.2°C 61% 12.7 mph W20.4 kmh W 16.1 mph25.9 kmh 30.25 in1024.4 mb - 0.00 in0.0 mm 0.00 in0.0 mm
04:40 AM -18.8°F-28.2°C -28.2°F-33.4°C 61% 10.4 mph W16.7 kmh W 13.8 mph22.2 kmh 30.26 in1024.7 mb - 0.00 in0.0 mm 0.00 in0.0 mm
04:50 AM -19.0°F-28.3°C -28.1°F-33.4°C 62% 8.1 mph W13.0 kmh W 12.7 mph20.4 kmh 30.27 in1025.1 mb - 0.00 in0.0 mm 0.00 in0.0 mm
05:00 AM -19.4°F-28.6°C -28.4°F-33.6°C 62% 9.2 mph W14.8 kmh W 11.5 mph18.5 kmh 30.27 in1025.1 mb - 0.00 in0.0 mm 0.00 in0.0 mm
05:10 AM -19.7°F-28.7°C -28.4°F-33.6°C 63% 8.1 mph W13.0 kmh W 11.5 mph18.5 kmh 30.28 in1025.4 mb - 0.00 in0.0 mm 0.00 in0.0 mm
05:20 AM -20.1°F-28.9°C -28.8°F-33.8°C 63% 9.2 mph W14.8 kmh W 18.4 mph29.6 kmh 30.29 in1025.7 mb - 0.00 in0.0 mm 0.00 in0.0 mm
05:30 AM -20.5°F-29.2°C -28.9°F-33.8°C 64% 12.7 mph W20.4 kmh W 20.7 mph33.3 kmh 30.30 in1026.1 mb - 0.00 in0.0 mm 0.00 in0.0 mm
05:40 AM -20.8°F-29.3°C -29.2°F-34.0°C 64% 9.2 mph W14.8 kmh W 15.0 mph24.1 kmh 30.30 in1026.1 mb - 0.00 in0.0 mm 0.00 in0.0 mm
05:50 AM -21.0°F-29.4°C -29.4°F-34.1°C 64% 11.5 mph WNW18.5 kmh WNW 15.0 mph24.1 kmh 30.30 in1026.1 mb - 0.00 in0.0 mm 0.00 in0.0 mm
06:00 AM -21.3°F-29.6°C -29.4°F-34.1°C 65% 8.1 mph WSW13.0 kmh WSW 8.1 mph13.0 kmh 30.31 in1026.4 mb - 0.00 in0.0 mm 0.00 in0.0 mm
06:10 AM -21.4°F-29.7°C -29.5°F-34.2°C 65% Calm Calm -- 30.31 in1026.4 mb - 0.00 in0.0 mm 0.00 in0.0 mm
07:40 AM -21.4°F-29.7°C -29.5°F-34.2°C 65% Calm Calm -- 30.36 in1028.1 mb - 0.00 in0.0 mm 0.00 in0.0 mm
07:50 AM -21.4°F-29.7°C -29.5°F-34.2°C 65% Calm Calm -- 30.36 in1028.1 mb - 0.00 in0.0 mm 0.00 in0.0 mm
08:00 AM -22.4°F-30.2°C -30.4°F-34.7°C 65% Calm Calm -- 30.36 in1028.1 mb - 0.00 in0.0 mm 0.00 in0.0 mm
08:10 AM -22.1°F-30.1°C -30.2°F-34.6°C 65% Calm Calm -- 30.37 in1028.4 mb - 0.00 in0.0 mm 0.00 in0.0 mm
08:20 AM -21.8°F-29.9°C -29.9°F-34.4°C 65% Calm Calm -- 30.37 in1028.4 mb - 0.00 in0.0 mm 0.00 in0.0 mm
08:30 AM -21.7°F-29.8°C -30.0°F-34.4°C 64% Calm Calm -- 30.37 in1028.4 mb - 0.00 in0.0 mm 0.00 in0.0 mm
08:40 AM -21.4°F-29.7°C -29.7°F-34.3°C 64% Calm Calm -- 30.38 in1028.8 mb - 0.00 in0.0 mm 0.00 in0.0 mm
08:50 AM -21.3°F-29.6°C -29.7°F-34.3°C 64% Calm Calm -- 30.38 in1028.8 mb - 0.00 in0.0 mm 0.00 in0.0 mm
09:00 AM -20.9°F-29.4°C -29.3°F-34.1°C 64% Calm Calm -- 30.38 in1028.8 mb - 0.00 in0.0 mm 0.00 in0.0 mm
09:10 AM -20.6°F-29.2°C -29.3°F-34.1°C 63% Calm Calm -- 30.38 in1028.8 mb - 0.00 in0.0 mm 0.00 in0.0 mm
09:20 AM -20.1°F-28.9°C -28.8°F-33.8°C 63% 11.5 mph WSW18.5 kmh WSW 16.1 mph25.9 kmh 30.39 in1029.1 mb - 0.00 in0.0 mm 0.00 in0.0 mm
09:30 AM -19.9°F-28.8°C -28.9°F-33.8°C 62% 11.5 mph W18.5 kmh W 23.0 mph37.0 kmh 30.40 in1029.5 mb - 0.00 in0.0 mm 0.00 in0.0 mm
09:40 AM -19.7°F-28.7°C -28.7°F-33.7°C 62% 8.1 mph WSW13.0 kmh WSW 13.8 mph22.2 kmh 30.40 in1029.5 mb - 0.00 in0.0 mm 0.00 in0.0 mm
09:50 AM -19.3°F-28.5°C -28.3°F-33.5°C 62% 13.8 mph W22.2 kmh W 16.1 mph25.9 kmh 30.41 in1029.8 mb - 0.00 in0.0 mm 0.00 in0.0 mm
10:00 AM -18.9°F-28.3°C -28.0°F-33.3°C 62% 10.4 mph WSW16.7 kmh WSW 11.5 mph18.5 kmh 30.41 in1029.8 mb - 0.00 in0.0 mm 0.00 in0.0 mm
10:10 AM -18.6°F-28.1°C -28.0°F-33.3°C 61% 9.2 mph W14.8 kmh W 16.1 mph25.9 kmh 30.41 in1029.8 mb - 0.00 in0.0 mm 0.00 in0.0 mm
10:20 AM -18.1°F-27.8°C -27.5°F-33.1°C 61% 10.4 mph W16.7 kmh W 13.8 mph22.2 kmh 30.41 in1029.8 mb - 0.00 in0.0 mm 0.00 in0.0 mm
10:30 AM -18.0°F-27.8°C -27.4°F-33.0°C 61% 8.1 mph W13.0 kmh W 12.7 mph20.4 kmh 30.42 in1030.1 mb - 0.00 in0.0 mm 0.00 in0.0 mm
10:40 AM -17.6°F-27.6°C -27.3°F-32.9°C 60% 8.1 mph W13.0 kmh W 11.5 mph18.5 kmh 30.42 in1030.1 mb - 0.00 in0.0 mm 0.00 in0.0 mm
10:50 AM -16.9°F-27.2°C -26.4°F-32.4°C 61% 5.8 mph W9.3 kmh W 10.4 mph16.7 kmh 30.42 in1030.1 mb - 0.00 in0.0 mm 0.00 in0.0 mm
11:00 AM -16.9°F-27.2°C -26.4°F-32.4°C 61% 8.1 mph W13.0 kmh W 11.5 mph18.5 kmh 30.42 in1030.1 mb - 0.00 in0.0 mm 0.00 in0.0 mm
11:10 AM -16.3°F-26.8°C -25.8°F-32.1°C 61% 8.1 mph WSW13.0 kmh WSW 11.5 mph18.5 kmh 30.42 in1030.1 mb - 0.00 in0.0 mm 0.00 in0.0 mm
11:20 AM -16.1°F-26.7°C -25.9°F-32.2°C 60% 10.4 mph W16.7 kmh W 12.7 mph20.4 kmh 30.42 in1030.1 mb - 0.00 in0.0 mm 0.00 in0.0 mm
11:30 AM -15.6°F-26.4°C -25.4°F-31.9°C 60% 8.1 mph W13.0 kmh W 8.1 mph13.0 kmh 30.42 in1030.1 mb - 0.00 in0.0 mm 0.00 in0.0 mm
11:40 AM -14.7°F-25.9°C -24.9°F-31.6°C 59% 6.9 mph SW11.1 kmh SW 11.5 mph18.5 kmh 30.42 in1030.1 mb - 0.00 in0.0 mm 0.00 in0.0 mm
11:50 AM -14.4°F-25.8°C -24.6°F-31.4°C 59% 6.9 mph SW11.1 kmh SW 13.8 mph22.2 kmh 30.42 in1030.1 mb - 0.00 in0.0 mm 0.00 in0.0 mm
12:00 PM -14.3°F-25.7°C -24.2°F-31.2°C 60% 6.9 mph SW11.1 kmh SW 10.4 mph16.7 kmh 30.42 in1030.1 mb - 0.00 in0.0 mm 0.00 in0.0 mm
12:10 PM -13.6°F-25.3°C -23.2°F-30.7°C 61% 6.9 mph WSW11.1 kmh WSW 9.2 mph14.8 kmh 30.42 in1030.1 mb - 0.00 in0.0 mm 0.00 in0.0 mm
12:20 PM -13.6°F-25.3°C -23.8°F-31.0°C 59% 8.1 mph SW13.0 kmh SW 11.5 mph18.5 kmh 30.42 in1030.1 mb - 0.00 in0.0 mm 0.00 in0.0 mm
12:30 PM -13.4°F-25.2°C -23.0°F-30.6°C 61% 8.1 mph SW13.0 kmh SW 12.7 mph20.4 kmh 30.42 in1030.1 mb - 0.00 in0.0 mm 0.00 in0.0 mm
12:40 PM -13.3°F-25.2°C -22.9°F-30.5°C 61% 8.1 mph SSW13.0 kmh SSW 10.4 mph16.7 kmh 30.41 in1029.8 mb - 0.00 in0.0 mm 0.00 in0.0 mm
12:50 PM -12.9°F-24.9°C -22.5°F-30.3°C 61% 8.1 mph WSW13.0 kmh WSW 13.8 mph22.2 kmh 30.41 in1029.8 mb - 0.00 in0.0 mm 0.00 in0.0 mm
01:00 PM -13.2°F-25.1°C -22.8°F-30.4°C 61% 10.4 mph SW16.7 kmh SW 11.5 mph18.5 kmh 30.41 in1029.8 mb - 0.00 in0.0 mm 0.00 in0.0 mm
01:10 PM -12.9°F-24.9°C -22.2°F-30.1°C 62% 8.1 mph WSW13.0 kmh WSW 12.7 mph20.4 kmh 30.42 in1030.1 mb - 0.00 in0.0 mm 0.00 in0.0 mm
01:20 PM -12.6°F-24.8°C -21.4°F-29.7°C 64% 8.1 mph SW13.0 kmh SW 11.5 mph18.5 kmh 30.41 in1029.8 mb - 0.00 in0.0 mm 0.00 in0.0 mm
01:30 PM -12.1°F-24.5°C -21.1°F-29.5°C 63% 9.2 mph SW14.8 kmh SW 11.5 mph18.5 kmh 30.41 in1029.8 mb - 0.00 in0.0 mm 0.00 in0.0 mm
01:40 PM -12.2°F-24.6°C -21.2°F-29.6°C 63% 9.2 mph WSW14.8 kmh WSW 13.8 mph22.2 kmh 30.41 in1029.8 mb - 0.00 in0.0 mm 0.00 in0.0 mm
01:50 PM -12.1°F-24.5°C -20.8°F-29.3°C 64% 9.2 mph SW14.8 kmh SW 13.8 mph22.2 kmh 30.41 in1029.8 mb - 0.00 in0.0 mm 0.00 in0.0 mm
02:00 PM -11.5°F-24.2°C -20.3°F-29.1°C 64% 6.9 mph WSW11.1 kmh WSW 10.4 mph16.7 kmh 30.41 in1029.8 mb - 0.00 in0.0 mm 0.00 in0.0 mm
02:10 PM -11.2°F-24.0°C -20.3°F-29.1°C 63% 8.1 mph WSW13.0 kmh WSW 11.5 mph18.5 kmh 30.41 in1029.8 mb - 0.00 in0.0 mm 0.00 in0.0 mm
02:20 PM -11.0°F-23.9°C -19.8°F-28.8°C 64% 8.1 mph SW13.0 kmh SW 10.4 mph16.7 kmh 30.41 in1029.8 mb - 0.00 in0.0 mm 0.00 in0.0 mm
02:30 PM -10.8°F-23.8°C -19.6°F-28.7°C 64% 5.8 mph WSW9.3 kmh WSW 11.5 mph18.5 kmh 30.41 in1029.8 mb - 0.00 in0.0 mm 0.00 in0.0 mm
02:40 PM -10.9°F-23.8°C -19.7°F-28.7°C 64% 8.1 mph SW13.0 kmh SW 10.4 mph16.7 kmh 30.41 in1029.8 mb - 0.00 in0.0 mm 0.00 in0.0 mm
02:50 PM -10.5°F-23.6°C -19.0°F-28.3°C 65% 9.2 mph SW14.8 kmh SW 11.5 mph18.5 kmh 30.41 in1029.8 mb - 0.00 in0.0 mm 0.00 in0.0 mm
03:00 PM -10.2°F-23.4°C -19.1°F-28.4°C 64% 9.2 mph SW14.8 kmh SW 11.5 mph18.5 kmh 30.41 in1029.8 mb - 0.00 in0.0 mm 0.00 in0.0 mm
03:10 PM -10.0°F-23.3°C -18.8°F-28.2°C 64% 10.4 mph SW16.7 kmh SW 15.0 mph24.1 kmh 30.41 in1029.8 mb - 0.00 in0.0 mm 0.00 in0.0 mm
03:20 PM -9.7°F-23.2°C -18.3°F-27.9°C 65% 6.9 mph SW11.1 kmh SW 11.5 mph18.5 kmh 30.41 in1029.8 mb - 0.00 in0.0 mm 0.00 in0.0 mm
03:30 PM -9.9°F-23.3°C -18.5°F-28.1°C 65% 4.6 mph WSW7.4 kmh WSW 11.5 mph18.5 kmh 30.42 in1030.1 mb - 0.00 in0.0 mm 0.00 in0.0 mm
03:40 PM -10.2°F-23.4°C -18.8°F-28.2°C 65% 6.9 mph SW11.1 kmh SW 11.5 mph18.5 kmh 30.42 in1030.1 mb - 0.00 in0.0 mm 0.00 in0.0 mm
03:50 PM -10.0°F-23.3°C -18.5°F-28.1°C 65% 4.6 mph WSW7.4 kmh WSW 11.5 mph18.5 kmh 30.42 in1030.1 mb - 0.00 in0.0 mm 0.00 in0.0 mm
04:00 PM -10.2°F-23.4°C -18.7°F-28.2°C 65% 5.8 mph WSW9.3 kmh WSW 9.2 mph14.8 kmh 30.42 in1030.1 mb - 0.00 in0.0 mm 0.00 in0.0 mm
04:10 PM -10.2°F-23.4°C -19.0°F-28.3°C 64% 9.2 mph SW14.8 kmh SW 13.8 mph22.2 kmh 30.42 in1030.1 mb - 0.00 in0.0 mm 0.00 in0.0 mm
04:20 PM -10.3°F-23.5°C -19.1°F-28.4°C 64% 4.6 mph SW7.4 kmh SW 4.6 mph7.4 kmh 30.42 in1030.1 mb - 0.00 in0.0 mm 0.00 in0.0 mm
04:30 PM -10.3°F-23.5°C -19.2°F-28.4°C 64% 8.1 mph SW13.0 kmh SW 10.4 mph16.7 kmh 30.42 in1030.1 mb - 0.00 in0.0 mm 0.00 in0.0 mm
04:40 PM -10.6°F-23.7°C -19.1°F-28.4°C 65% 3.5 mph SW5.6 kmh SW 6.9 mph11.1 kmh 30.42 in1030.1 mb - 0.00 in0.0 mm 0.00 in0.0 mm
04:50 PM -10.9°F-23.8°C -19.4°F-28.6°C 65% 4.6 mph WSW7.4 kmh WSW 6.9 mph11.1 kmh 30.42 in1030.1 mb - 0.00 in0.0 mm 0.00 in0.0 mm
05:00 PM -11.4°F-24.1°C -19.9°F-28.8°C 65% 3.5 mph SW5.6 kmh SW 6.9 mph11.1 kmh 30.42 in1030.1 mb - 0.00 in0.0 mm 0.00 in0.0 mm
05:10 PM -11.8°F-24.3°C -20.0°F-28.9°C 66% 2.3 mph SW3.7 kmh SW 4.6 mph7.4 kmh 30.42 in1030.1 mb - 0.00 in0.0 mm 0.00 in0.0 mm
05:20 PM -11.9°F-24.4°C -19.8°F-28.8°C 67% 3.5 mph WSW5.6 kmh WSW 3.5 mph5.6 kmh 30.42 in1030.1 mb - 0.00 in0.0 mm 0.00 in0.0 mm
05:30 PM -12.1°F-24.5°C -20.0°F-28.9°C 67% 2.3 mph SW3.7 kmh SW 3.5 mph5.6 kmh 30.43 in1030.5 mb - 0.00 in0.0 mm 0.00 in0.0 mm
05:40 PM -12.5°F-24.7°C -20.4°F-29.1°C 67% 2.3 mph SW3.7 kmh SW 3.5 mph5.6 kmh 30.43 in1030.5 mb - 0.00 in0.0 mm 0.00 in0.0 mm
05:50 PM -12.7°F-24.8°C -20.3°F-29.1°C 68% 3.5 mph SW5.6 kmh SW 3.5 mph5.6 kmh 30.43 in1030.5 mb - 0.00 in0.0 mm 0.00 in0.0 mm
06:00 PM -12.7°F-24.8°C -20.3°F-29.1°C 68% 1.2 mph SW1.9 kmh SW 2.3 mph3.7 kmh 30.43 in1030.5 mb - 0.00 in0.0 mm 0.00 in0.0 mm
06:10 PM -13.0°F-25.0°C -20.6°F-29.2°C 68% 2.3 mph SW3.7 kmh SW 2.3 mph3.7 kmh 30.44 in1030.8 mb - 0.00 in0.0 mm 0.00 in0.0 mm
06:20 PM -12.9°F-24.9°C -20.5°F-29.2°C 68% 2.3 mph SW3.7 kmh SW 2.3 mph3.7 kmh 30.44 in1030.8 mb - 0.00 in0.0 mm 0.00 in0.0 mm
06:30 PM -12.7°F-24.8°C -20.3°F-29.1°C 68% 2.3 mph SW3.7 kmh SW 3.5 mph5.6 kmh 30.44 in1030.8 mb - 0.00 in0.0 mm 0.00 in0.0 mm
06:40 PM -12.9°F-24.9°C -20.5°F-29.2°C 68% 2.3 mph WSW3.7 kmh WSW 2.3 mph3.7 kmh 30.45 in1031.2 mb - 0.00 in0.0 mm 0.00 in0.0 mm
06:50 PM -12.9°F-24.9°C -20.5°F-29.2°C 68% 3.5 mph WSW5.6 kmh WSW 3.5 mph5.6 kmh 30.45 in1031.2 mb - 0.00 in0.0 mm 0.00 in0.0 mm
07:00 PM -12.8°F-24.9°C -20.4°F-29.1°C 68% 2.3 mph WSW3.7 kmh WSW 3.5 mph5.6 kmh 30.46 in1031.5 mb - 0.00 in0.0 mm 0.00 in0.0 mm
07:10 PM -13.2°F-25.1°C -20.7°F-29.3°C 68% 3.5 mph WSW5.6 kmh WSW 3.5 mph5.6 kmh 30.46 in1031.5 mb - 0.00 in0.0 mm 0.00 in0.0 mm
07:20 PM -13.6°F-25.3°C -21.1°F-29.5°C 68% 3.5 mph WSW5.6 kmh WSW 3.5 mph5.6 kmh 30.46 in1031.5 mb - 0.00 in0.0 mm 0.00 in0.0 mm
07:30 PM -13.5°F-25.3°C -21.1°F-29.5°C 68% 2.3 mph WSW3.7 kmh WSW 3.5 mph5.6 kmh 30.46 in1031.5 mb - 0.00 in0.0 mm 0.00 in0.0 mm
07:40 PM -13.3°F-25.2°C -20.9°F-29.4°C 68% 2.3 mph WSW3.7 kmh WSW 3.5 mph5.6 kmh 30.47 in1031.8 mb - 0.00 in0.0 mm 0.00 in0.0 mm
07:50 PM -13.6°F-25.3°C -21.1°F-29.5°C 68% 2.3 mph SW3.7 kmh SW 5.8 mph9.3 kmh 30.47 in1031.8 mb - 0.00 in0.0 mm 0.00 in0.0 mm
08:00 PM -13.8°F-25.4°C -21.3°F-29.6°C 68% 4.6 mph SW7.4 kmh SW 5.8 mph9.3 kmh 30.47 in1031.8 mb - 0.00 in0.0 mm 0.00 in0.0 mm
08:10 PM -13.5°F-25.3°C -21.4°F-29.7°C 67% 1.2 mph SW1.9 kmh SW 3.5 mph5.6 kmh 30.47 in1031.8 mb - 0.00 in0.0 mm 0.00 in0.0 mm
08:20 PM -13.6°F-25.3°C -21.4°F-29.7°C 67% Calm Calm 1.2 mph1.9 kmh 30.47 in1031.8 mb - 0.00 in0.0 mm 0.00 in0.0 mm
08:30 PM -14.0°F-25.6°C -21.8°F-29.9°C 67% 1.2 mph WSW1.9 kmh WSW 3.5 mph5.6 kmh 30.48 in1032.2 mb - 0.00 in0.0 mm 0.00 in0.0 mm
08:40 PM -14.4°F-25.8°C -22.2°F-30.1°C 67% 1.2 mph W1.9 kmh W 3.5 mph5.6 kmh 30.48 in1032.2 mb - 0.00 in0.0 mm 0.00 in0.0 mm
08:50 PM -14.3°F-25.7°C -21.8°F-29.9°C 68% 1.2 mph WSW1.9 kmh WSW 3.5 mph5.6 kmh 30.48 in1032.2 mb - 0.00 in0.0 mm 0.00 in0.0 mm
09:00 PM -14.7°F-25.9°C -22.5°F-30.3°C 67% 1.2 mph WSW1.9 kmh WSW 2.3 mph3.7 kmh 30.47 in1031.8 mb - 0.00 in0.0 mm 0.00 in0.0 mm
09:10 PM -15.2°F-26.2°C -22.7°F-30.4°C 68% 1.2 mph SW1.9 kmh SW 2.3 mph3.7 kmh 30.48 in1032.2 mb - 0.00 in0.0 mm 0.00 in0.0 mm
09:20 PM -15.8°F-26.6°C -22.9°F-30.5°C 69% Calm Calm 1.2 mph1.9 kmh 30.48 in1032.2 mb - 0.00 in0.0 mm 0.00 in0.0 mm
09:30 PM -16.0°F-26.7°C -22.9°F-30.5°C 70% 2.3 mph W3.7 kmh W 3.5 mph5.6 kmh 30.48 in1032.2 mb - 0.00 in0.0 mm 0.00 in0.0 mm
09:40 PM -15.7°F-26.5°C -22.6°F-30.3°C 70% 2.3 mph WNW3.7 kmh WNW 3.5 mph5.6 kmh 30.48 in1032.2 mb - 0.00 in0.0 mm 0.00 in0.0 mm
09:50 PM -15.5°F-26.4°C -22.4°F-30.2°C 70% 2.3 mph WNW3.7 kmh WNW 3.5 mph5.6 kmh 30.48 in1032.2 mb - 0.00 in0.0 mm 0.00 in0.0 mm
10:00 PM -15.5°F-26.4°C -22.7°F-30.4°C 69% 1.2 mph WNW1.9 kmh WNW 3.5 mph5.6 kmh 30.49 in1032.5 mb - 0.00 in0.0 mm 0.00 in0.0 mm
10:10 PM -15.6°F-26.4°C -22.8°F-30.4°C 69% 2.3 mph WNW3.7 kmh WNW 2.3 mph3.7 kmh 30.49 in1032.5 mb - 0.00 in0.0 mm 0.00 in0.0 mm
10:20 PM -15.7°F-26.5°C -22.9°F-30.5°C 69% 2.3 mph W3.7 kmh W 3.5 mph5.6 kmh 30.49 in1032.5 mb - 0.00 in0.0 mm 0.00 in0.0 mm
10:30 PM -15.7°F-26.5°C -22.9°F-30.5°C 69% 1.2 mph WSW1.9 kmh WSW 3.5 mph5.6 kmh 30.50 in1032.8 mb - 0.00 in0.0 mm 0.00 in0.0 mm
10:40 PM -16.1°F-26.7°C -23.2°F-30.7°C 69% 2.3 mph WSW3.7 kmh WSW 4.6 mph7.4 kmh 30.50 in1032.8 mb - 0.00 in0.0 mm 0.00 in0.0 mm
10:50 PM -16.2°F-26.8°C -23.1°F-30.6°C 70% 1.2 mph WSW1.9 kmh WSW 2.3 mph3.7 kmh 30.50 in1032.8 mb - 0.00 in0.0 mm 0.00 in0.0 mm
11:00 PM -16.9°F-27.2°C -23.8°F-31.0°C 70% 1.2 mph WSW1.9 kmh WSW 3.5 mph5.6 kmh 30.50 in1032.8 mb - 0.00 in0.0 mm 0.00 in0.0 mm
11:10 PM -16.5°F-26.9°C -23.1°F-30.6°C 71% 3.5 mph WSW5.6 kmh WSW 3.5 mph5.6 kmh 30.50 in1032.8 mb - 0.00 in0.0 mm 0.00 in0.0 mm
11:20 PM -16.8°F-27.1°C -23.7°F-30.9°C 70% 2.3 mph WSW3.7 kmh WSW 2.3 mph3.7 kmh 30.50 in1032.8 mb - 0.00 in0.0 mm 0.00 in0.0 mm
11:30 PM -16.5°F-26.9°C -23.4°F-30.8°C 70% 2.3 mph WSW3.7 kmh WSW 3.5 mph5.6 kmh 30.50 in1032.8 mb - 0.00 in0.0 mm 0.00 in0.0 mm
11:40 PM -16.5°F-26.9°C -23.4°F-30.8°C 70% 3.5 mph WSW5.6 kmh WSW 4.6 mph7.4 kmh 30.50 in1032.8 mb - 0.00 in0.0 mm 0.00 in0.0 mm
11:50 PM -16.3°F-26.8°C -23.5°F-30.8°C 69% 3.5 mph WSW5.6 kmh WSW 3.5 mph5.6 kmh 30.49 in1032.5 mb - 0.00 in0.0 mm 0.00 in0.0 mm